createdAt,value
2023-04-16T00:01:03.958Z,17.15
2023-04-16T00:03:32.214Z,19.83
2023-04-16T00:06:00.591Z,20.90
2023-04-16T00:08:28.606Z,21.45
2023-04-16T00:10:56.586Z,20.95
2023-04-16T00:13:26.094Z,18.45
2023-04-16T00:15:54.136Z,20.70
2023-04-16T00:18:23.616Z,17.88
2023-04-16T00:20:51.721Z,18.83
2023-04-16T00:23:19.732Z,19.23
2023-04-16T00:25:47.972Z,19.05
2023-04-16T00:28:15.978Z,18.15
2023-04-16T00:30:44.329Z,18.83
2023-04-16T00:33:12.401Z,16.95
2023-04-16T00:35:41.820Z,15.45
2023-04-16T00:38:10.059Z,15.48
2023-04-16T00:40:39.350Z,15.68
2023-04-16T00:43:07.397Z,15.23
2023-04-16T00:45:35.821Z,17.70
2023-04-16T00:48:04.868Z,23.73
2023-04-16T00:50:32.913Z,21.63
2023-04-16T00:53:03.962Z,22.17
2023-04-16T00:55:32.727Z,24.20
2023-04-16T00:58:01.447Z,25.25
2023-04-16T01:00:29.540Z,24.67
2023-04-16T01:02:58.075Z,22.20
2023-04-16T01:05:26.088Z,23.30
2023-04-16T01:07:54.105Z,24.27
2023-04-16T01:10:23.636Z,22.42
2023-04-16T01:12:51.592Z,21.20
2023-04-16T01:15:19.749Z,21.98
2023-04-16T01:17:48.579Z,22.15
2023-04-16T01:20:16.870Z,21.20
2023-04-16T01:22:46.270Z,18.55
2023-04-16T01:25:16.731Z,23.15
2023-04-16T01:27:44.834Z,22.77
2023-04-16T01:30:13.192Z,20.30
2023-04-16T01:32:54.388Z,20.58
2023-04-16T01:35:22.445Z,25.52
2023-04-16T01:37:53.190Z,27.63
2023-04-16T01:40:21.326Z,27.83
2023-04-16T01:42:49.403Z,28.52
2023-04-16T01:45:17.433Z,30.52
2023-04-16T01:47:45.725Z,27.65
2023-04-16T01:50:13.759Z,30.92
2023-04-16T01:52:41.734Z,29.90
2023-04-16T01:55:11.721Z,28.77
2023-04-16T01:57:39.787Z,30.58
2023-04-16T02:00:09.475Z,28.92
2023-04-16T02:02:46.817Z,29.25
2023-04-16T02:05:20.817Z,28.60
2023-04-16T02:07:48.793Z,27.75
2023-04-16T02:10:19.260Z,29.10
2023-04-16T02:12:47.814Z,27.00
2023-04-16T02:15:16.870Z,27.67
2023-04-16T02:17:46.481Z,24.10
2023-04-16T02:20:14.778Z,27.55
2023-04-16T02:22:53.103Z,25.45
2023-04-16T02:25:25.265Z,24.90
2023-04-16T02:27:56.542Z,27.13
2023-04-16T02:30:34.876Z,25.92
2023-04-16T02:33:05.658Z,21.75
2023-04-16T02:35:33.851Z,21.88
2023-04-16T02:38:02.370Z,19.92
2023-04-16T02:40:32.316Z,21.90
2023-04-16T02:43:01.133Z,22.05
2023-04-16T02:45:31.434Z,21.55
2023-04-16T02:47:59.734Z,22.92
2023-04-16T02:50:27.824Z,24.45
2023-04-16T02:52:55.803Z,23.83
2023-04-16T02:55:23.836Z,25.13
2023-04-16T02:57:53.794Z,27.55
2023-04-16T03:00:22.583Z,23.75
2023-04-16T03:02:50.816Z,26.25
2023-04-16T03:05:19.218Z,25.20
2023-04-16T03:07:47.956Z,30.27
2023-04-16T03:10:16.654Z,29.75
2023-04-16T03:12:44.629Z,30.23
2023-04-16T03:15:14.010Z,28.95
2023-04-16T03:17:42.139Z,27.20
2023-04-16T03:20:11.376Z,32.22
2023-04-16T03:22:39.768Z,32.05
2023-04-16T03:25:08.665Z,33.95
2023-04-16T03:27:37.462Z,33.05
2023-04-16T03:30:06.781Z,34.50
2023-04-16T03:32:38.400Z,32.83
2023-04-16T03:35:08.084Z,32.78
2023-04-16T03:37:36.339Z,36.08
2023-04-16T03:40:05.724Z,36.97
2023-04-16T03:42:33.856Z,38.72
2023-04-16T03:45:01.952Z,36.90
2023-04-16T03:47:30.015Z,39.78
2023-04-16T03:50:03.003Z,36.95
2023-04-16T03:52:30.995Z,34.40
2023-04-16T03:54:58.938Z,35.90
2023-04-16T03:57:29.211Z,31.27
2023-04-16T04:00:02.976Z,32.22
2023-04-16T04:02:42.541Z,33.75
2023-04-16T04:05:19.476Z,35.70
2023-04-16T04:07:48.317Z,38.10
2023-04-16T04:10:16.730Z,31.80
2023-04-16T04:12:44.852Z,36.33
2023-04-16T04:15:13.788Z,36.45
2023-04-16T04:17:43.635Z,36.00
2023-04-16T04:20:13.089Z,35.60
2023-04-16T04:22:44.779Z,36.60
2023-04-16T04:25:13.368Z,36.63
2023-04-16T04:27:41.421Z,37.60
2023-04-16T04:30:10.521Z,38.17
2023-04-16T04:32:39.212Z,34.13
2023-04-16T04:35:08.104Z,39.08
2023-04-16T04:37:36.069Z,39.15
2023-04-16T04:40:14.442Z,41.25
2023-04-16T04:42:42.434Z,37.83
2023-04-16T04:45:12.061Z,33.90
2023-04-16T04:47:40.529Z,32.38
2023-04-16T04:50:09.583Z,36.90
2023-04-16T04:52:37.695Z,34.28
2023-04-16T04:55:06.496Z,40.55
2023-04-16T04:57:35.873Z,38.63
2023-04-16T05:00:05.675Z,43.95
2023-04-16T05:02:42.065Z,41.92
2023-04-16T05:05:10.562Z,43.25
2023-04-16T05:07:38.620Z,40.38
2023-04-16T05:10:07.635Z,41.15
2023-04-16T05:12:37.052Z,42.35
2023-04-16T05:15:05.463Z,39.08
2023-04-16T05:17:33.478Z,40.55
2023-04-16T05:20:01.813Z,40.60
2023-04-16T05:22:29.784Z,35.33
2023-04-16T05:24:57.759Z,39.13
2023-04-16T05:27:25.815Z,36.45
2023-04-16T05:29:55.233Z,34.38
2023-04-16T05:32:25.998Z,36.35
2023-04-16T05:34:54.031Z,34.75
2023-04-16T05:37:22.131Z,31.50
2023-04-16T05:39:50.375Z,36.22
2023-04-16T05:42:18.441Z,34.15
2023-04-16T05:44:46.419Z,33.53
2023-04-16T05:47:15.801Z,30.88
2023-04-16T05:49:43.712Z,34.30
2023-04-16T05:52:11.787Z,35.45
2023-04-16T05:54:39.792Z,31.45
2023-04-16T05:57:07.860Z,35.65
2023-04-16T05:59:35.867Z,33.08
2023-04-16T06:02:04.049Z,33.92
2023-04-16T06:04:33.663Z,36.88
2023-04-16T06:07:01.701Z,37.00
2023-04-16T06:09:29.671Z,31.92
2023-04-16T06:11:57.985Z,33.28
2023-04-16T06:14:25.969Z,31.42
2023-04-16T06:16:54.024Z,29.75
2023-04-16T06:19:22.019Z,34.70
2023-04-16T06:21:51.411Z,32.08
2023-04-16T06:24:19.384Z,35.33
2023-04-16T06:26:47.310Z,39.75
2023-04-16T06:29:15.521Z,34.75
2023-04-16T06:31:43.556Z,38.53
2023-04-16T06:34:11.621Z,39.17
2023-04-16T06:36:39.613Z,36.95
2023-04-16T06:39:09.279Z,38.08
2023-04-16T06:41:37.668Z,34.22
2023-04-16T06:44:05.889Z,30.35
2023-04-16T06:46:34.012Z,36.75
2023-04-16T06:49:02.216Z,36.80
2023-04-16T06:51:30.642Z,33.90
2023-04-16T06:53:58.663Z,35.75
2023-04-16T06:56:28.009Z,32.83
2023-04-16T06:58:57.138Z,34.97
2023-04-16T07:01:25.349Z,31.60
2023-04-16T07:03:53.898Z,36.35
2023-04-16T07:06:22.093Z,35.83
2023-04-16T07:08:50.161Z,27.23
2023-04-16T07:11:19.006Z,36.08
2023-04-16T07:13:48.451Z,35.53
2023-04-16T07:16:16.557Z,34.33
2023-04-16T07:18:44.598Z,33.75
2023-04-16T07:21:12.820Z,34.95
2023-04-16T07:23:40.851Z,38.25
2023-04-16T07:26:09.055Z,38.17
2023-04-16T07:28:37.104Z,37.08
2023-04-16T07:31:06.779Z,37.33
2023-04-16T07:33:34.806Z,40.00
2023-04-16T07:36:02.915Z,38.92
2023-04-16T07:38:30.938Z,35.47
2023-04-16T07:40:59.213Z,32.65
2023-04-16T07:43:27.532Z,39.03
2023-04-16T07:45:55.558Z,34.42
2023-04-16T07:48:25.297Z,36.53
2023-04-16T07:50:53.568Z,31.17
2023-04-16T07:53:21.644Z,31.48
2023-04-16T07:55:49.644Z,34.55
2023-04-16T07:58:17.653Z,36.33
2023-04-16T08:00:45.768Z,35.72
2023-04-16T08:03:13.891Z,37.90
2023-04-16T08:05:43.328Z,35.15
2023-04-16T08:08:11.336Z,36.35
2023-04-16T08:10:40.047Z,32.00
2023-04-16T08:13:08.092Z,35.97
2023-04-16T08:15:36.138Z,30.08
2023-04-16T08:18:05.869Z,28.55
2023-04-16T08:20:34.198Z,27.27
2023-04-16T08:23:03.530Z,27.45
2023-04-16T08:25:31.523Z,31.50
2023-04-16T08:27:59.697Z,31.52
2023-04-16T08:30:28.608Z,32.65
2023-04-16T08:32:56.811Z,32.88
2023-04-16T08:35:24.905Z,33.97
2023-04-16T08:37:53.745Z,32.00
2023-04-16T08:40:23.229Z,36.15
2023-04-16T08:42:55.758Z,31.35
2023-04-16T08:45:24.152Z,28.90
2023-04-16T08:47:53.205Z,30.15
2023-04-16T08:50:25.530Z,32.72
2023-04-16T08:52:57.711Z,29.60
2023-04-16T08:55:33.380Z,33.40
2023-04-16T08:58:02.476Z,32.10
2023-04-16T09:00:32.724Z,30.55
2023-04-16T09:03:01.249Z,31.83
2023-04-16T09:05:30.858Z,30.00
2023-04-16T09:07:58.892Z,31.17
2023-04-16T09:10:28.580Z,28.00
2023-04-16T09:12:57.272Z,31.25
2023-04-16T09:15:26.176Z,30.83
2023-04-16T09:17:56.558Z,26.90
2023-04-16T09:20:25.016Z,27.70
2023-04-16T09:22:53.179Z,24.35
2023-04-16T09:25:22.488Z,25.85
2023-04-16T09:27:55.708Z,26.85
2023-04-16T09:30:25.591Z,28.98
2023-04-16T09:32:54.680Z,25.85
2023-04-16T09:35:22.791Z,23.17
2023-04-16T09:37:58.365Z,24.40
2023-04-16T09:43:00.785Z,22.85
2023-04-16T09:45:33.898Z,24.23
2023-04-16T09:48:04.999Z,23.23
2023-04-16T09:50:33.101Z,23.00
2023-04-16T09:53:03.532Z,20.10
2023-04-16T09:55:31.543Z,21.98
2023-04-16T09:58:03.930Z,26.52
2023-04-16T10:00:32.305Z,25.90
2023-04-16T10:03:07.736Z,26.17
2023-04-16T10:08:04.345Z,24.67
2023-04-16T10:10:33.557Z,22.45
2023-04-16T10:13:03.100Z,23.95
2023-04-16T10:15:31.845Z,21.83
2023-04-16T10:18:00.410Z,23.27
2023-04-16T10:20:28.832Z,23.63
2023-04-16T10:22:57.822Z,25.25
2023-04-16T10:25:26.251Z,23.88
2023-04-16T10:27:54.663Z,22.65
2023-04-16T10:30:24.510Z,23.67
2023-04-16T10:32:53.595Z,19.42
2023-04-16T10:35:21.899Z,22.17
2023-04-16T10:37:51.510Z,23.92
2023-04-16T10:40:27.552Z,21.42
2023-04-16T10:42:59.069Z,22.20
2023-04-16T10:45:38.986Z,20.55
2023-04-16T10:48:09.463Z,20.42
2023-04-16T10:50:39.723Z,18.38
2023-04-16T10:53:21.180Z,18.02
2023-04-16T10:56:24.157Z,19.88
2023-04-16T10:58:55.070Z,18.73
2023-04-16T11:01:32.855Z,20.10
2023-04-16T11:04:02.988Z,20.13
2023-04-16T11:06:31.961Z,18.15
2023-04-16T11:09:00.068Z,20.85
2023-04-16T11:11:29.593Z,20.63
2023-04-16T11:14:03.031Z,19.85
2023-04-16T11:16:43.359Z,20.50
2023-04-16T11:19:18.077Z,18.85
2023-04-16T11:21:46.575Z,19.67
2023-04-16T11:24:14.580Z,17.88
2023-04-16T11:26:42.567Z,20.27
2023-04-16T11:29:15.997Z,20.92
2023-04-16T11:31:51.512Z,22.40
2023-04-16T11:36:48.846Z,19.65
2023-04-16T11:39:17.000Z,19.98
2023-04-16T11:41:45.829Z,20.05
2023-04-16T11:44:21.546Z,17.92
2023-04-16T11:46:51.400Z,17.27
2023-04-16T11:49:27.885Z,15.57
2023-04-16T11:51:56.448Z,15.48
2023-04-16T11:54:26.038Z,14.13
2023-04-16T11:56:54.688Z,15.88
2023-04-16T11:59:24.038Z,14.77
2023-04-16T12:01:55.558Z,15.65
2023-04-16T12:04:25.538Z,16.70
2023-04-16T12:07:09.758Z,16.58
2023-04-16T12:09:40.578Z,14.90
2023-04-16T12:12:27.130Z,16.45
2023-04-16T12:14:56.727Z,17.40
2023-04-16T12:17:26.661Z,17.25
2023-04-16T12:19:58.903Z,18.17
2023-04-16T12:22:31.308Z,17.70
2023-04-16T12:25:03.013Z,18.08
2023-04-16T12:27:45.548Z,15.32
2023-04-16T12:30:14.410Z,15.25
2023-04-16T12:32:44.900Z,16.42
2023-04-16T12:35:13.428Z,16.25
2023-04-16T12:37:41.531Z,18.13
2023-04-16T12:40:10.345Z,17.80
2023-04-16T12:42:38.518Z,17.75
2023-04-16T12:45:10.342Z,16.65
2023-04-16T12:47:38.511Z,17.40
2023-04-16T12:50:09.281Z,16.20
2023-04-16T12:52:37.455Z,16.15
2023-04-16T12:55:05.963Z,16.35
2023-04-16T12:57:34.022Z,15.85
2023-04-16T13:00:02.124Z,16.80
2023-04-16T13:02:30.446Z,17.10
2023-04-16T13:04:58.622Z,17.73
2023-04-16T13:07:28.255Z,17.80
2023-04-16T13:09:56.410Z,20.15
2023-04-16T13:12:24.494Z,14.93
2023-04-16T13:14:52.520Z,14.90
2023-04-16T13:17:20.558Z,16.30
2023-04-16T13:19:48.534Z,16.95
2023-04-16T13:22:16.776Z,17.58
2023-04-16T13:24:46.322Z,16.88
2023-04-16T13:27:16.159Z,17.45
2023-04-16T13:29:44.581Z,19.00
2023-04-16T13:32:14.030Z,18.98
2023-04-16T13:34:42.187Z,17.30
2023-04-16T13:37:10.239Z,16.13
2023-04-16T13:39:38.338Z,15.77
2023-04-16T13:42:07.804Z,16.77
2023-04-16T13:44:35.913Z,17.20
2023-04-16T13:47:06.693Z,17.05
2023-04-16T13:49:36.123Z,16.23
2023-04-16T13:52:04.414Z,17.63
2023-04-16T13:54:32.595Z,17.80
2023-04-16T13:57:00.920Z,18.48
2023-04-16T13:59:30.401Z,17.90
2023-04-16T14:01:58.686Z,18.02
2023-04-16T14:04:26.984Z,16.40
2023-04-16T14:06:54.959Z,22.17
2023-04-16T14:09:23.060Z,23.25
2023-04-16T14:11:51.965Z,16.73
2023-04-16T14:14:20.231Z,17.10
2023-04-16T14:16:49.756Z,16.95
2023-04-16T14:19:17.858Z,15.95
2023-04-16T14:21:46.253Z,15.07
2023-04-16T14:24:17.021Z,17.58
2023-04-16T14:26:45.285Z,15.85
2023-04-16T14:29:13.318Z,18.25
2023-04-16T14:31:41.566Z,19.17
2023-04-16T14:34:11.282Z,19.88
2023-04-16T14:36:39.525Z,20.02
2023-04-16T14:39:07.492Z,19.02
2023-04-16T14:41:35.560Z,20.75
2023-04-16T14:44:04.219Z,21.85
2023-04-16T14:46:33.660Z,21.63
2023-04-16T14:49:01.723Z,21.02
2023-04-16T14:51:31.392Z,19.02
2023-04-16T14:53:59.608Z,17.60
2023-04-16T14:56:27.676Z,19.20
2023-04-16T14:58:55.819Z,20.60
2023-04-16T15:01:24.032Z,20.48
2023-04-16T15:03:52.395Z,20.88
2023-04-16T15:06:20.564Z,20.02
2023-04-16T15:08:49.937Z,18.38
2023-04-16T15:11:17.906Z,18.10
2023-04-16T15:13:46.088Z,18.50
2023-04-16T15:16:14.098Z,18.23
2023-04-16T15:18:42.193Z,16.52
2023-04-16T15:21:12.405Z,18.45
2023-04-16T15:23:40.996Z,17.38
2023-04-16T15:26:10.374Z,15.20
2023-04-16T15:28:38.382Z,16.00
2023-04-16T15:31:06.889Z,16.90
2023-04-16T15:33:35.095Z,17.33
2023-04-16T15:36:03.830Z,20.52
2023-04-16T15:38:31.902Z,17.60
2023-04-16T15:41:00.861Z,15.95
2023-04-16T15:43:30.499Z,17.30
2023-04-16T15:45:58.433Z,15.93
2023-04-16T15:48:26.676Z,16.02
2023-04-16T15:50:56.074Z,16.60
2023-04-16T15:53:24.291Z,15.55
2023-04-16T15:55:53.694Z,12.90
2023-04-16T15:58:22.283Z,13.10
2023-04-16T16:00:51.712Z,13.60
2023-04-16T16:03:20.417Z,12.38
2023-04-16T16:05:48.916Z,12.50
2023-04-16T16:08:17.679Z,13.15
2023-04-16T16:10:45.777Z,12.38
2023-04-16T16:13:17.964Z,11.30
2023-04-16T16:15:46.346Z,11.63
2023-04-16T16:18:16.006Z,10.55
2023-04-16T16:20:44.439Z,10.10
2023-04-16T16:23:12.539Z,11.68
2023-04-16T16:25:42.078Z,10.10
2023-04-16T16:28:10.156Z,10.40
2023-04-16T16:30:38.134Z,10.30
2023-04-16T16:33:06.125Z,10.20
2023-04-16T16:35:35.580Z,9.38
2023-04-16T16:38:03.762Z,11.02
2023-04-16T16:40:32.112Z,9.90
2023-04-16T16:43:00.518Z,10.25
2023-04-16T16:45:28.698Z,10.38
2023-04-16T16:47:58.825Z,10.50
2023-04-16T16:50:26.933Z,9.55
2023-04-16T16:52:56.372Z,10.82
2023-04-16T16:55:24.877Z,9.30
2023-04-16T16:57:52.981Z,8.95
2023-04-16T17:00:21.824Z,8.88
2023-04-16T17:02:51.965Z,9.88
2023-04-16T17:05:20.356Z,9.82
2023-04-16T17:07:48.441Z,10.32
2023-04-16T17:10:21.116Z,10.38
2023-04-16T17:12:49.718Z,10.25
2023-04-16T17:15:20.490Z,10.25
2023-04-16T17:17:49.614Z,10.32
2023-04-16T17:20:17.683Z,10.35
2023-04-16T17:22:45.739Z,9.10
2023-04-16T17:25:14.056Z,9.40
2023-04-16T17:27:43.508Z,10.30
2023-04-16T17:30:12.067Z,10.05
2023-04-16T17:32:40.115Z,9.85
2023-04-16T17:35:09.443Z,9.75
2023-04-16T17:37:37.472Z,12.45
2023-04-16T17:40:07.633Z,11.00
2023-04-16T17:42:36.185Z,10.57
2023-04-16T17:45:06.223Z,10.32
2023-04-16T17:47:35.839Z,10.00
2023-04-16T17:50:03.927Z,9.60
2023-04-16T17:52:32.041Z,11.65
2023-04-16T17:55:01.524Z,12.48
2023-04-16T17:57:29.939Z,11.90
2023-04-16T17:59:57.982Z,12.30
2023-04-16T18:02:27.528Z,12.45
2023-04-16T18:04:56.110Z,11.88
2023-04-16T18:07:24.434Z,10.38
2023-04-16T18:09:52.443Z,11.80
2023-04-16T18:12:20.435Z,11.95
2023-04-16T18:14:48.402Z,12.50
2023-04-16T18:17:17.755Z,14.32
2023-04-16T18:19:47.124Z,16.17
2023-04-16T18:22:15.332Z,15.20
2023-04-16T18:24:43.389Z,15.98
2023-04-16T18:27:12.002Z,16.65
2023-04-16T18:29:40.743Z,17.50
2023-04-16T18:32:11.763Z,16.30
2023-04-16T18:34:40.191Z,17.77
2023-04-16T18:37:09.659Z,18.00
2023-04-16T18:39:37.694Z,19.08
2023-04-16T18:42:06.168Z,17.27
2023-04-16T18:44:34.255Z,20.02
2023-04-16T18:47:02.359Z,19.30
2023-04-16T18:49:30.419Z,19.50
2023-04-16T18:51:58.486Z,18.50
2023-04-16T18:54:27.926Z,16.92
2023-04-16T18:56:57.067Z,17.05
2023-04-16T18:59:25.858Z,20.67
2023-04-16T19:01:53.973Z,20.92
2023-04-16T19:04:22.009Z,18.15
2023-04-16T19:06:50.053Z,20.98
2023-04-16T19:09:18.016Z,20.92
2023-04-16T19:11:47.794Z,19.70
2023-04-16T19:14:15.835Z,20.58
2023-04-16T19:16:43.929Z,19.42
2023-04-16T19:19:12.200Z,17.98
2023-04-16T19:21:40.347Z,18.58
2023-04-16T19:24:08.592Z,18.38
2023-04-16T19:26:36.634Z,20.08
2023-04-16T19:29:06.027Z,19.60
2023-04-16T19:31:34.736Z,16.95
2023-04-16T19:34:03.614Z,21.60
2023-04-16T19:36:32.426Z,18.25
2023-04-16T19:39:00.454Z,20.70
2023-04-16T19:41:28.493Z,19.02
2023-04-16T19:43:56.529Z,20.80
2023-04-16T19:46:25.905Z,19.25
2023-04-16T19:48:53.994Z,20.38
2023-04-16T19:51:22.011Z,20.27
2023-04-16T19:53:49.994Z,19.48
2023-04-16T19:56:17.942Z,19.80
2023-04-16T19:58:46.003Z,20.20
2023-04-16T20:01:14.091Z,18.25
2023-04-16T20:03:43.583Z,21.48
2023-04-16T20:06:11.687Z,20.00
2023-04-16T20:08:39.777Z,21.02
2023-04-16T20:11:08.481Z,22.38
2023-04-16T20:13:37.595Z,22.20
2023-04-16T20:16:09.227Z,18.23
2023-04-16T20:18:41.217Z,19.00
2023-04-16T20:21:10.991Z,17.85
2023-04-16T20:23:39.100Z,20.92
2023-04-16T20:26:07.387Z,17.05
2023-04-16T20:28:35.297Z,18.23
2023-04-16T20:31:03.371Z,18.45
2023-04-16T20:33:31.415Z,20.27
2023-04-16T20:35:59.503Z,17.95
2023-04-16T20:38:32.124Z,20.45
2023-04-16T20:41:09.865Z,18.50
2023-04-16T20:43:40.732Z,18.95
2023-04-16T20:46:09.037Z,19.60
2023-04-16T20:48:37.225Z,18.23
2023-04-16T20:51:07.749Z,20.75
2023-04-16T20:53:38.117Z,19.23
2023-04-16T20:56:08.940Z,17.98
2023-04-16T20:58:36.952Z,19.00
2023-04-16T21:01:05.867Z,18.42
2023-04-16T21:03:33.895Z,17.17
2023-04-16T21:06:03.492Z,18.38
2023-04-16T21:08:31.484Z,17.50
2023-04-16T21:11:00.962Z,17.02
2023-04-16T21:13:29.016Z,16.48
2023-04-16T21:15:57.125Z,16.15
2023-04-16T21:18:25.143Z,16.88
2023-04-16T21:20:53.152Z,16.08
2023-04-16T21:23:21.154Z,17.38
2023-04-16T21:25:49.217Z,16.42
2023-04-16T21:28:18.544Z,17.30
2023-04-16T21:30:46.497Z,19.83
2023-04-16T21:33:16.035Z,20.45
2023-04-16T21:35:44.091Z,22.42
2023-04-16T21:38:12.370Z,20.77
2023-04-16T21:40:40.494Z,20.25
2023-04-16T21:43:08.472Z,22.23
2023-04-16T21:45:37.909Z,22.95
2023-04-16T21:48:06.258Z,22.23
2023-04-16T21:50:34.305Z,22.35
2023-04-16T21:53:04.464Z,22.88
2023-04-16T21:55:32.794Z,25.55
2023-04-16T21:58:00.840Z,24.38
2023-04-16T22:00:29.053Z,22.13
2023-04-16T22:03:00.095Z,24.67
2023-04-16T22:05:28.929Z,26.00
2023-04-16T22:07:56.907Z,22.00
2023-04-16T22:10:24.996Z,25.77
2023-04-16T22:12:53.679Z,27.58
2023-04-16T22:15:22.045Z,28.48
2023-04-16T22:17:50.135Z,30.23
2023-04-16T22:20:20.108Z,29.77
2023-04-16T22:22:48.069Z,32.65
2023-04-16T22:25:16.362Z,30.38
2023-04-16T22:27:44.435Z,30.33
2023-04-16T22:30:13.372Z,28.88
2023-04-16T22:32:41.387Z,29.15
2023-04-16T22:35:10.357Z,26.38
2023-04-16T22:37:39.768Z,30.45
2023-04-16T22:40:10.654Z,32.95
2023-04-16T22:42:38.645Z,38.38
2023-04-16T22:45:08.748Z,35.40
2023-04-16T22:47:36.781Z,34.75
2023-04-16T22:50:04.972Z,34.00
2023-04-16T22:52:33.065Z,43.75
2023-04-16T22:55:02.392Z,36.63
2023-04-16T22:57:30.491Z,38.45
2023-04-16T22:59:58.429Z,37.75
2023-04-16T23:02:26.565Z,35.97
2023-04-16T23:04:54.671Z,41.15
2023-04-16T23:07:22.787Z,43.20
2023-04-16T23:09:50.876Z,36.15
2023-04-16T23:12:20.181Z,44.17
2023-04-16T23:14:48.197Z,48.28
2023-04-16T23:17:16.191Z,46.92
2023-04-16T23:19:44.182Z,43.60
2023-04-16T23:22:12.285Z,47.70
2023-04-16T23:24:40.322Z,44.90
2023-04-16T23:27:08.350Z,48.47
2023-04-16T23:29:37.708Z,43.95
2023-04-16T23:32:05.998Z,43.72
2023-04-16T23:34:33.972Z,47.45
2023-04-16T23:37:01.996Z,46.78
2023-04-16T23:39:30.002Z,46.55
2023-04-16T23:41:58.167Z,43.47
2023-04-16T23:44:26.185Z,47.92
2023-04-16T23:46:55.583Z,41.92
2023-04-16T23:49:23.658Z,45.10
2023-04-16T23:51:51.679Z,49.35
2023-04-16T23:54:19.756Z,49.17
2023-04-16T23:56:47.819Z,42.15
2023-04-16T23:59:16.815Z,47.15
